createdAt,value
2017-07-14T00:00:13.900Z,8.97
2017-07-14T00:02:39.939Z,10.07
2017-07-14T00:05:05.976Z,7.17
2017-07-14T00:07:32.034Z,5.67
2017-07-14T00:09:58.073Z,6.67
2017-07-14T00:12:24.128Z,12.57
2017-07-14T00:14:50.909Z,15.07
2017-07-14T00:17:16.946Z,8.27
2017-07-14T00:19:42.989Z,8.70
2017-07-14T00:22:09.021Z,9.87
2017-07-14T00:24:35.050Z,7.77
2017-07-14T00:27:01.128Z,6.30
2017-07-14T00:29:27.186Z,11.80
2017-07-14T00:31:53.255Z,11.10
2017-07-14T00:34:19.289Z,10.50
2017-07-14T00:36:45.344Z,7.30
2017-07-14T00:39:12.105Z,7.57
2017-07-14T00:41:38.205Z,8.37
2017-07-14T00:44:04.245Z,10.20
2017-07-14T00:46:30.286Z,11.03
2017-07-14T00:48:57.069Z,13.97
2017-07-14T00:51:23.112Z,6.10
2017-07-14T00:53:49.890Z,8.80
2017-07-14T00:56:15.950Z,11.67
2017-07-14T00:58:42.734Z,11.03
2017-07-14T01:01:08.775Z,17.27
2017-07-14T01:03:35.566Z,9.10
2017-07-14T01:06:01.617Z,8.10
2017-07-14T01:08:28.402Z,9.10
2017-07-14T01:10:54.460Z,15.20
2017-07-14T01:13:20.505Z,16.30
2017-07-14T01:15:46.532Z,10.43
2017-07-14T01:18:12.570Z,15.03
2017-07-14T01:20:38.599Z,13.30
2017-07-14T01:23:04.645Z,6.73
2017-07-14T01:25:30.690Z,11.33
2017-07-14T01:27:56.721Z,17.90
2017-07-14T01:30:23.525Z,10.83
2017-07-14T01:32:49.561Z,9.20
2017-07-14T01:35:15.641Z,8.90
2017-07-14T01:37:41.710Z,4.67
2017-07-14T01:40:07.774Z,7.47
2017-07-14T01:42:33.806Z,14.03
2017-07-14T01:44:59.885Z,7.70
2017-07-14T01:47:26.658Z,8.43
2017-07-14T01:49:52.718Z,10.57
2017-07-14T01:52:18.765Z,6.53
2017-07-14T01:54:44.803Z,5.17
2017-07-14T01:57:10.851Z,5.63
2017-07-14T01:59:37.630Z,8.33
2017-07-14T02:02:03.672Z,7.60
2017-07-14T02:04:29.722Z,14.33
2017-07-14T02:06:55.762Z,11.10
2017-07-14T02:09:21.805Z,13.07
2017-07-14T02:11:48.625Z,10.10
2017-07-14T02:14:14.654Z,6.23
2017-07-14T02:16:41.431Z,8.23
2017-07-14T02:19:07.487Z,7.83
2017-07-14T02:21:34.281Z,13.30
2017-07-14T02:24:00.306Z,11.30
2017-07-14T02:26:26.330Z,10.07
2017-07-14T02:28:53.459Z,19.63
2017-07-14T02:31:20.222Z,10.47
2017-07-14T02:33:46.249Z,9.40
2017-07-14T02:36:12.293Z,13.93
2017-07-14T02:38:38.338Z,7.47
2017-07-14T02:41:04.379Z,12.00
2017-07-14T02:43:30.422Z,9.00
2017-07-14T02:45:56.450Z,9.10
2017-07-14T02:48:23.276Z,17.40
2017-07-14T02:50:49.309Z,14.10
2017-07-14T02:53:15.350Z,12.73
2017-07-14T02:55:41.422Z,14.80
2017-07-14T02:58:07.493Z,15.83
2017-07-14T03:00:33.557Z,23.73
2017-07-14T03:02:59.611Z,18.70
2017-07-14T03:05:25.674Z,8.10
2017-07-14T03:07:51.734Z,12.17
2017-07-14T03:10:18.530Z,8.83
2017-07-14T03:12:44.561Z,8.10
2017-07-14T03:15:10.617Z,8.60
2017-07-14T03:17:36.710Z,12.30
2017-07-14T03:20:02.801Z,7.23
2017-07-14T03:22:29.597Z,9.63
2017-07-14T03:24:55.647Z,11.83
2017-07-14T03:27:22.431Z,6.77
2017-07-14T03:29:48.466Z,9.47
2017-07-14T03:32:15.280Z,10.57
2017-07-14T03:34:41.323Z,9.00
2017-07-14T03:37:07.394Z,9.40
2017-07-14T03:39:33.441Z,12.63
2017-07-14T03:42:00.241Z,7.13
2017-07-14T03:44:33.985Z,10.20
2017-07-14T03:47:00.049Z,11.17
2017-07-14T03:49:26.830Z,19.50
2017-07-14T03:51:52.874Z,12.00
2017-07-14T03:54:18.925Z,11.33
2017-07-14T03:56:44.953Z,10.00
2017-07-14T03:59:11.001Z,14.93
2017-07-14T04:01:37.043Z,12.63
2017-07-14T04:04:03.086Z,17.83
2017-07-14T04:06:29.145Z,17.77
2017-07-14T04:08:55.917Z,20.67
2017-07-14T04:11:21.958Z,10.33
2017-07-14T04:13:48.057Z,7.93
2017-07-14T04:16:14.101Z,14.10
2017-07-14T04:18:40.863Z,12.27
2017-07-14T04:21:06.910Z,13.90
2017-07-14T04:23:32.965Z,17.13
2017-07-14T04:25:59.038Z,9.00
2017-07-14T04:28:25.102Z,10.50
2017-07-14T04:30:51.157Z,10.70
2017-07-14T04:33:17.197Z,11.10
2017-07-14T04:35:43.233Z,18.50
2017-07-14T04:38:09.291Z,16.60
2017-07-14T04:40:36.074Z,12.33
2017-07-14T04:43:02.137Z,12.60
2017-07-14T04:45:28.905Z,18.27
2017-07-14T04:47:54.949Z,16.13
2017-07-14T04:50:21.009Z,12.40
2017-07-14T04:52:47.049Z,14.23
2017-07-14T04:55:13.078Z,25.13
2017-07-14T04:57:39.866Z,24.00
2017-07-14T05:00:05.910Z,20.33
2017-07-14T05:02:31.985Z,22.30
2017-07-14T05:04:58.306Z,31.47
2017-07-14T05:07:24.388Z,18.50
2017-07-14T05:09:50.457Z,23.87
2017-07-14T05:12:17.233Z,22.00
2017-07-14T05:14:43.301Z,18.10
2017-07-14T05:17:09.326Z,21.17
2017-07-14T05:19:36.106Z,19.93
2017-07-14T05:22:02.162Z,33.97
2017-07-14T05:24:28.948Z,26.13
2017-07-14T05:26:54.997Z,23.40
2017-07-14T05:29:21.793Z,24.50
2017-07-14T05:31:47.831Z,27.90
2017-07-14T05:34:14.606Z,26.30
2017-07-14T05:36:40.629Z,22.43
2017-07-14T05:39:06.649Z,26.00
2017-07-14T05:41:32.689Z,22.60
2017-07-14T05:43:59.473Z,17.57
2017-07-14T05:46:25.505Z,13.63
2017-07-14T05:48:52.345Z,15.03
2017-07-14T05:51:19.199Z,15.13
2017-07-14T05:53:45.251Z,11.93
2017-07-14T05:56:11.285Z,10.27
2017-07-14T05:58:37.330Z,14.17
2017-07-14T06:01:03.385Z,17.03
2017-07-14T06:03:29.431Z,15.87
2017-07-14T06:05:56.378Z,17.37
2017-07-14T06:08:22.463Z,14.70
2017-07-14T06:10:48.494Z,14.70
2017-07-14T06:13:14.521Z,13.83
2017-07-14T06:15:40.573Z,25.50
2017-07-14T06:18:07.373Z,16.40
2017-07-14T06:20:33.418Z,12.20
2017-07-14T06:23:00.197Z,21.90
2017-07-14T06:25:26.272Z,13.97
2017-07-14T06:27:52.328Z,16.20
2017-07-14T06:30:18.357Z,11.57
2017-07-14T06:32:45.165Z,14.20
2017-07-14T06:35:11.225Z,13.80
2017-07-14T06:37:37.269Z,13.93
2017-07-14T06:40:03.309Z,15.87
2017-07-14T06:42:30.114Z,11.90
2017-07-14T06:44:56.214Z,5.87
2017-07-14T06:47:22.237Z,9.60
2017-07-14T06:49:48.262Z,12.90
2017-07-14T06:52:15.073Z,10.73
2017-07-14T06:54:41.151Z,19.77
2017-07-14T06:57:07.206Z,7.07
2017-07-14T06:59:34.026Z,10.47
2017-07-14T07:02:00.065Z,6.37
2017-07-14T07:04:26.102Z,7.87
2017-07-14T07:06:52.138Z,8.57
2017-07-14T07:09:18.183Z,20.13
2017-07-14T07:11:44.222Z,8.70
2017-07-14T07:14:10.290Z,11.50
2017-07-14T07:16:36.337Z,13.43
2017-07-14T07:19:02.404Z,11.63
2017-07-14T07:21:28.434Z,14.33
2017-07-14T07:23:54.465Z,14.47
2017-07-14T07:26:20.498Z,7.90
2017-07-14T07:28:46.518Z,10.23
2017-07-14T07:31:12.571Z,7.43
2017-07-14T07:33:38.599Z,11.53
2017-07-14T07:36:04.653Z,12.50
2017-07-14T07:38:30.698Z,9.00
2017-07-14T07:40:56.722Z,11.00
2017-07-14T07:43:22.771Z,9.37
2017-07-14T07:45:48.806Z,9.80
2017-07-14T07:48:21.829Z,8.10
2017-07-14T07:50:47.881Z,9.03
2017-07-14T07:53:14.658Z,11.53
2017-07-14T07:55:40.673Z,16.37
2017-07-14T07:58:06.716Z,10.47
2017-07-14T08:00:33.501Z,6.77
2017-07-14T08:03:05.754Z,19.57
2017-07-14T08:05:31.786Z,6.93
2017-07-14T08:07:57.862Z,12.47
2017-07-14T08:10:23.897Z,6.30
2017-07-14T08:12:49.955Z,9.00
2017-07-14T08:15:16.025Z,14.40
2017-07-14T08:17:42.065Z,15.07
2017-07-14T08:20:08.089Z,8.03
2017-07-14T08:22:34.110Z,11.93
2017-07-14T08:25:00.141Z,10.13
2017-07-14T08:27:26.174Z,20.37
2017-07-14T08:29:52.209Z,7.67
2017-07-14T08:32:18.973Z,6.60
2017-07-14T08:34:45.006Z,15.30
2017-07-14T08:37:11.040Z,10.00
2017-07-14T08:39:37.073Z,5.00
2017-07-14T08:42:03.846Z,9.53
2017-07-14T08:44:29.887Z,9.70
2017-07-14T08:46:55.922Z,12.63
2017-07-14T08:49:21.973Z,11.70
2017-07-14T08:51:48.010Z,11.90
2017-07-14T08:54:14.063Z,11.70
2017-07-14T08:56:40.102Z,14.33
2017-07-14T08:59:06.133Z,10.37
2017-07-14T09:01:32.177Z,15.50
2017-07-14T09:03:58.262Z,13.47
2017-07-14T09:06:25.077Z,11.80
2017-07-14T09:08:51.111Z,10.87
2017-07-14T09:11:17.170Z,18.00
2017-07-14T09:13:43.192Z,8.20
2017-07-14T09:16:09.224Z,10.50
2017-07-14T09:18:36.011Z,12.10
2017-07-14T09:21:02.070Z,11.30
2017-07-14T09:23:28.141Z,6.50
2017-07-14T09:25:54.171Z,14.27
2017-07-14T09:28:20.212Z,15.70
2017-07-14T09:30:46.231Z,11.17
2017-07-14T09:33:12.266Z,14.17
2017-07-14T09:35:38.293Z,8.03
2017-07-14T09:38:04.337Z,9.50
2017-07-14T09:40:30.403Z,10.33
2017-07-14T09:42:56.434Z,10.60
2017-07-14T09:45:23.243Z,8.53
2017-07-14T09:47:49.288Z,6.53
2017-07-14T09:50:15.337Z,7.63
2017-07-14T09:52:41.370Z,6.97
2017-07-14T09:55:07.418Z,8.23
2017-07-14T09:57:33.457Z,10.73
2017-07-14T09:59:59.493Z,4.83
2017-07-14T10:02:25.536Z,3.77
2017-07-14T10:04:52.330Z,3.90
2017-07-14T10:07:18.385Z,6.43
2017-07-14T10:09:44.410Z,7.90
2017-07-14T10:12:10.438Z,5.47
2017-07-14T10:14:36.466Z,5.40
2017-07-14T10:17:02.495Z,6.10
2017-07-14T10:19:28.515Z,7.30
2017-07-14T10:21:55.298Z,3.90
2017-07-14T10:24:21.347Z,8.87
2017-07-14T10:26:48.142Z,6.90
2017-07-14T10:29:14.173Z,6.73
2017-07-14T10:31:40.969Z,5.50
2017-07-14T10:34:07.003Z,4.60
2017-07-14T10:36:33.061Z,3.57
2017-07-14T10:38:59.088Z,7.30
2017-07-14T10:41:25.114Z,6.37
2017-07-14T10:43:51.160Z,6.33
2017-07-14T10:46:17.949Z,5.20
2017-07-14T10:48:44.005Z,7.70
2017-07-14T10:51:10.033Z,6.00
2017-07-14T10:53:36.054Z,3.60
2017-07-14T10:56:02.105Z,4.83
2017-07-14T10:58:28.153Z,6.27
2017-07-14T11:00:54.174Z,2.83
2017-07-14T11:03:20.210Z,6.33
2017-07-14T11:05:46.240Z,2.63
2017-07-14T11:08:13.037Z,8.10
2017-07-14T11:10:39.062Z,4.33
2017-07-14T11:13:05.112Z,6.00
2017-07-14T11:15:31.144Z,3.93
2017-07-14T11:17:57.174Z,3.00
2017-07-14T11:20:23.210Z,5.97
2017-07-14T11:22:49.989Z,3.67
2017-07-14T11:25:16.022Z,4.87
2017-07-14T11:27:42.825Z,5.07
2017-07-14T11:30:08.862Z,5.23
2017-07-14T11:32:34.918Z,1.57
2017-07-14T11:35:00.973Z,2.27
2017-07-14T11:37:27.048Z,5.43
2017-07-14T11:39:53.086Z,2.60
2017-07-14T11:42:19.134Z,7.47
2017-07-14T11:44:45.154Z,3.30
2017-07-14T11:47:11.186Z,3.43
2017-07-14T11:49:37.218Z,5.43
2017-07-14T11:52:03.273Z,3.27
2017-07-14T11:54:29.313Z,14.50
2017-07-14T11:56:55.358Z,2.60
2017-07-14T11:59:21.395Z,3.73
2017-07-14T12:01:47.415Z,5.50
2017-07-14T12:04:13.443Z,6.53
2017-07-14T12:06:39.496Z,3.87
2017-07-14T12:09:05.545Z,4.37
2017-07-14T12:11:38.438Z,4.50
2017-07-14T12:14:04.474Z,2.13
2017-07-14T12:16:30.514Z,2.00
2017-07-14T12:18:56.570Z,2.10
2017-07-14T12:21:22.589Z,8.17
2017-07-14T12:23:48.629Z,3.83
2017-07-14T12:26:15.402Z,4.87
2017-07-14T12:28:41.456Z,2.20
2017-07-14T12:31:08.242Z,8.23
2017-07-14T12:33:34.262Z,2.57
2017-07-14T12:36:00.283Z,6.30
2017-07-14T12:38:26.327Z,4.13
2017-07-14T12:40:53.098Z,3.10
2017-07-14T12:43:19.117Z,5.87
2017-07-14T12:45:45.150Z,7.40
2017-07-14T12:48:11.157Z,5.30
2017-07-14T12:50:37.178Z,6.63
2017-07-14T12:53:03.214Z,2.87
2017-07-14T12:55:29.250Z,15.50
2017-07-14T12:57:55.278Z,9.53
2017-07-14T13:00:21.302Z,4.63
2017-07-14T13:02:47.330Z,7.30
2017-07-14T13:05:13.353Z,3.40
2017-07-14T13:07:39.398Z,4.57
2017-07-14T13:10:05.416Z,6.80
2017-07-14T13:12:31.454Z,4.37
2017-07-14T13:14:58.209Z,4.70
2017-07-14T13:17:24.261Z,5.70
2017-07-14T13:19:50.317Z,4.20
2017-07-14T13:22:16.361Z,6.80
2017-07-14T13:24:42.393Z,6.43
2017-07-14T13:27:08.433Z,5.23
2017-07-14T13:29:34.477Z,6.87
2017-07-14T13:32:00.513Z,10.43
2017-07-14T13:34:26.558Z,2.40
2017-07-14T13:36:53.323Z,2.60
2017-07-14T13:39:19.358Z,3.20
2017-07-14T13:41:45.389Z,3.07
2017-07-14T13:44:12.166Z,4.83
2017-07-14T13:46:38.209Z,4.77
2017-07-14T13:49:04.233Z,2.30
2017-07-14T13:51:31.006Z,3.50
2017-07-14T13:53:57.050Z,5.70
2017-07-14T13:56:23.125Z,2.90
2017-07-14T13:58:49.174Z,2.70
2017-07-14T14:01:15.950Z,8.60
2017-07-14T14:03:41.977Z,3.13
2017-07-14T14:06:08.012Z,7.80
2017-07-14T14:08:34.081Z,4.00
2017-07-14T14:11:00.110Z,5.43
2017-07-14T14:13:26.142Z,2.73
2017-07-14T14:15:52.170Z,5.20
2017-07-14T14:18:18.958Z,3.67
2017-07-14T14:20:44.998Z,3.33
2017-07-14T14:23:11.037Z,5.40
2017-07-14T14:25:37.056Z,1.40
2017-07-14T14:28:03.109Z,5.77
2017-07-14T14:30:29.148Z,3.30
2017-07-14T14:32:55.910Z,2.63
2017-07-14T14:35:21.970Z,1.97
2017-07-14T14:37:48.765Z,6.60
2017-07-14T14:40:14.794Z,2.10
2017-07-14T14:42:40.829Z,2.03
2017-07-14T14:45:06.885Z,4.77
2017-07-14T14:47:32.925Z,3.67
2017-07-14T14:49:58.974Z,4.37
2017-07-14T14:52:25.017Z,3.57
2017-07-14T14:54:57.986Z,9.30
2017-07-14T14:57:24.018Z,2.27
2017-07-14T14:59:50.069Z,5.10
2017-07-14T15:02:16.104Z,4.10
2017-07-14T15:04:42.144Z,3.00
2017-07-14T15:07:08.946Z,3.23
2017-07-14T15:09:34.985Z,4.50
2017-07-14T15:12:01.758Z,4.60
2017-07-14T15:14:27.818Z,8.77
2017-07-14T15:16:54.604Z,4.27
2017-07-14T15:19:20.674Z,8.37
2017-07-14T15:21:53.862Z,3.97
2017-07-14T15:24:19.908Z,3.40
2017-07-14T15:26:45.949Z,2.67
2017-07-14T15:29:11.981Z,4.43
2017-07-14T15:31:38.026Z,7.83
2017-07-14T15:34:04.058Z,11.63
2017-07-14T15:36:30.121Z,5.13
2017-07-14T15:38:56.165Z,5.33
2017-07-14T15:41:22.208Z,3.63
2017-07-14T15:43:49.008Z,6.07
2017-07-14T15:46:15.067Z,3.43
2017-07-14T15:48:41.167Z,5.00
2017-07-14T15:51:07.277Z,4.57
2017-07-14T15:53:33.316Z,3.70
2017-07-14T15:55:59.345Z,4.50
2017-07-14T15:58:25.399Z,4.50
2017-07-14T16:00:52.235Z,5.70
2017-07-14T16:03:18.269Z,5.30
2017-07-14T16:05:44.297Z,3.27
2017-07-14T16:08:10.332Z,12.50
2017-07-14T16:10:36.371Z,7.83
2017-07-14T16:13:02.495Z,4.70
2017-07-14T16:15:28.541Z,6.80
2017-07-14T16:17:54.582Z,10.73
2017-07-14T16:20:21.354Z,3.20
2017-07-14T16:22:47.425Z,11.40
2017-07-14T16:25:13.482Z,14.90
2017-07-14T16:27:39.526Z,10.00
2017-07-14T16:30:05.561Z,20.83
2017-07-14T16:32:31.589Z,3.97
2017-07-14T16:34:57.645Z,9.90
2017-07-14T16:37:23.661Z,11.13
2017-07-14T16:39:49.682Z,12.37
2017-07-14T16:42:16.452Z,5.30
2017-07-14T16:44:42.474Z,3.80
2017-07-14T16:47:08.505Z,8.03
2017-07-14T16:49:35.296Z,10.30
2017-07-14T16:52:01.324Z,9.77
2017-07-14T16:54:27.348Z,8.73
2017-07-14T16:56:53.386Z,6.23
2017-07-14T16:59:19.419Z,4.43
2017-07-14T17:01:45.470Z,7.37
2017-07-14T17:04:11.501Z,6.53
2017-07-14T17:06:38.290Z,11.67
2017-07-14T17:09:04.338Z,11.53
2017-07-14T17:11:30.389Z,4.40
2017-07-14T17:13:56.444Z,10.43
2017-07-14T17:16:23.207Z,13.40
2017-07-14T17:18:56.279Z,9.10
2017-07-14T17:21:22.317Z,12.40
2017-07-14T17:23:48.669Z,14.20
2017-07-14T17:26:15.443Z,17.83
2017-07-14T17:28:41.490Z,12.80
2017-07-14T17:31:07.525Z,11.50
2017-07-14T17:33:34.337Z,19.97
2017-07-14T17:36:01.122Z,11.37
2017-07-14T17:38:27.168Z,18.40
2017-07-14T17:40:53.954Z,12.13
2017-07-14T17:43:19.990Z,18.10
2017-07-14T17:45:46.047Z,17.23
2017-07-14T17:48:12.079Z,17.43
2017-07-14T17:50:38.106Z,17.70
2017-07-14T17:53:04.166Z,23.67
2017-07-14T17:55:30.289Z,17.47
2017-07-14T17:57:56.333Z,20.50
2017-07-14T18:00:22.401Z,24.30
2017-07-14T18:02:48.700Z,23.50
2017-07-14T18:05:15.566Z,23.63
2017-07-14T18:07:41.626Z,24.63
2017-07-14T18:10:08.398Z,28.47
2017-07-14T18:12:34.441Z,26.80
2017-07-14T18:15:00.453Z,29.30
2017-07-14T18:17:26.473Z,32.00
2017-07-14T18:19:53.279Z,28.10
2017-07-14T18:22:19.308Z,25.27
2017-07-14T18:24:45.333Z,37.60
2017-07-14T18:27:12.090Z,31.10
2017-07-14T18:29:38.125Z,32.40
2017-07-14T18:32:04.206Z,27.87
2017-07-14T18:34:30.270Z,36.13
2017-07-14T18:36:57.060Z,25.83
2017-07-14T18:39:23.088Z,27.83
2017-07-14T18:41:49.123Z,34.40
2017-07-14T18:44:15.892Z,36.27
2017-07-14T18:46:42.001Z,31.00
2017-07-14T18:49:08.030Z,36.90
2017-07-14T18:51:34.067Z,33.20
2017-07-14T18:54:00.105Z,41.30
2017-07-14T18:56:26.170Z,28.20
2017-07-14T18:58:52.205Z,35.30
2017-07-14T19:01:18.969Z,26.80
2017-07-14T19:03:45.009Z,30.17
2017-07-14T19:06:11.061Z,34.80
2017-07-14T19:08:37.094Z,30.50
2017-07-14T19:11:03.122Z,29.80
2017-07-14T19:13:29.177Z,35.17
2017-07-14T19:15:55.206Z,31.00
2017-07-14T19:18:21.240Z,34.17
2017-07-14T19:20:47.266Z,33.10
2017-07-14T19:23:13.296Z,44.13
2017-07-14T19:25:39.326Z,33.57
2017-07-14T19:28:05.380Z,30.70
2017-07-14T19:30:31.459Z,34.87
2017-07-14T19:32:57.498Z,37.20
2017-07-14T19:35:23.566Z,38.37
2017-07-14T19:37:49.594Z,33.93
2017-07-14T19:40:15.648Z,35.07
2017-07-14T19:42:41.674Z,33.37
2017-07-14T19:45:08.465Z,33.80
2017-07-14T19:47:34.529Z,37.70
2017-07-14T19:50:00.557Z,35.97
2017-07-14T19:52:26.614Z,37.60
2017-07-14T19:54:52.639Z,35.33
2017-07-14T19:57:18.681Z,36.00
2017-07-14T19:59:44.738Z,35.90
2017-07-14T20:02:10.790Z,38.77
2017-07-14T20:04:36.846Z,36.03
2017-07-14T20:07:09.934Z,33.50
2017-07-14T20:09:35.968Z,36.30
2017-07-14T20:12:01.997Z,35.07
2017-07-14T20:14:28.053Z,40.97
2017-07-14T20:16:54.843Z,43.00
2017-07-14T20:19:20.878Z,47.10
2017-07-14T20:21:46.904Z,38.10
2017-07-14T20:24:13.781Z,46.97
2017-07-14T20:26:39.802Z,40.80
2017-07-14T20:29:05.848Z,39.37
2017-07-14T20:31:31.881Z,43.70
2017-07-14T20:33:57.910Z,46.17
2017-07-14T20:36:23.954Z,50.20
2017-07-14T20:38:49.994Z,45.53
2017-07-14T20:41:16.073Z,46.70
2017-07-14T20:43:42.110Z,49.63
2017-07-14T20:46:08.925Z,41.57
2017-07-14T20:48:35.714Z,42.43
2017-07-14T20:51:01.781Z,46.97
2017-07-14T20:53:27.819Z,42.40
2017-07-14T20:55:53.882Z,52.60
2017-07-14T20:58:19.934Z,54.47
2017-07-14T21:00:45.986Z,51.17
2017-07-14T21:03:12.046Z,49.53
2017-07-14T21:05:38.075Z,55.73
2017-07-14T21:08:04.129Z,44.00
2017-07-14T21:10:30.938Z,50.93
2017-07-14T21:12:56.984Z,40.97
2017-07-14T21:15:24.119Z,41.30
2017-07-14T21:17:50.902Z,45.37
2017-07-14T21:20:16.977Z,24.00
2017-07-14T21:22:43.013Z,30.10
2017-07-14T21:25:09.043Z,36.17
2017-07-14T21:27:35.072Z,30.40
2017-07-14T21:30:01.837Z,33.80
2017-07-14T21:32:27.886Z,36.43
2017-07-14T21:34:54.678Z,27.70
2017-07-14T21:37:20.774Z,31.83
2017-07-14T21:39:46.901Z,27.93
2017-07-14T21:42:12.973Z,24.70
2017-07-14T21:44:39.050Z,29.70
2017-07-14T21:47:05.195Z,34.47
2017-07-14T21:49:31.249Z,31.90
2017-07-14T21:51:57.342Z,37.10
2017-07-14T21:54:23.888Z,28.80
2017-07-14T21:56:50.821Z,31.40
2017-07-14T21:59:16.845Z,28.57
2017-07-14T22:01:43.660Z,33.50
2017-07-14T22:04:10.449Z,26.97
2017-07-14T22:06:36.510Z,28.23
2017-07-14T22:09:03.317Z,30.43
2017-07-14T22:11:29.377Z,33.17
2017-07-14T22:13:55.497Z,29.17
2017-07-14T22:16:21.570Z,30.27
2017-07-14T22:18:47.590Z,29.83
2017-07-14T22:21:13.734Z,35.80
2017-07-14T22:23:39.789Z,33.80
2017-07-14T22:26:05.812Z,33.90
2017-07-14T22:28:31.845Z,36.57
2017-07-14T22:30:57.897Z,36.53
2017-07-14T22:33:23.942Z,34.80
2017-07-14T22:35:49.977Z,37.97
2017-07-14T22:38:16.020Z,40.30
2017-07-14T22:40:42.069Z,37.57
2017-07-14T22:43:08.877Z,35.70
2017-07-14T22:45:35.673Z,40.80
2017-07-14T22:48:01.717Z,46.47
2017-07-14T22:50:27.838Z,45.90
2017-07-14T22:52:54.632Z,42.43
2017-07-14T22:55:20.701Z,39.43
2017-07-14T22:57:46.762Z,42.47
2017-07-14T23:00:12.798Z,40.87
2017-07-14T23:02:38.855Z,45.73
2017-07-14T23:05:04.922Z,44.30
2017-07-14T23:07:30.998Z,45.30
2017-07-14T23:09:57.045Z,47.73
2017-07-14T23:12:23.074Z,54.60
2017-07-14T23:14:49.118Z,52.83
2017-07-14T23:17:15.157Z,48.17
2017-07-14T23:19:41.958Z,51.53
2017-07-14T23:22:08.025Z,48.17
2017-07-14T23:24:34.251Z,52.90
2017-07-14T23:27:00.308Z,61.53
2017-07-14T23:29:27.090Z,52.33
2017-07-14T23:31:53.129Z,48.07
2017-07-14T23:34:19.154Z,49.80
2017-07-14T23:36:45.951Z,52.23
2017-07-14T23:39:11.978Z,57.13
2017-07-14T23:41:38.020Z,49.10
2017-07-14T23:44:04.045Z,48.03
2017-07-14T23:46:30.073Z,49.33
2017-07-14T23:48:56.110Z,52.63
2017-07-14T23:51:22.144Z,58.37
2017-07-14T23:53:48.910Z,50.90
2017-07-14T23:56:14.938Z,46.70
2017-07-14T23:58:40.982Z,60.20
